Time;durP1;ratioP1;P1;durP2;ratioP2;P2;SDS_P1;SDS_P2;PMS_P1;PMS_P2;Temp;Humidity;BMP_temperature;BMP_pressure;BME280_temperature;BME280_humidity;BME280_pressure;Samples;Min_cycle;Max_cycle;Signal;HPM_P1;HPM_P2
2020/10/04 00:00:06;;;;;;;8.4;6.200001;;;;;;;4.53;97.6123;93114.51;;;;
2020/10/04 00:01:07;;;;;;;8.4;6.200001;;;;;;;4.53;97.6123;93114.51;;;;
2020/10/04 00:02:07;;;;;;;8.4;6.200001;;;;;;;4.53;97.6123;93114.51;;;;
2020/10/04 00:03:08;;;;;;;8.4;6.200001;;;;;;;4.53;97.6123;93114.51;;;;
2020/10/04 00:04:08;;;;;;;7.550001;5.95;;;;;;;4.45;97.85742;93122.44;;;;
2020/10/04 00:05:09;;;;;;;7.550001;5.95;;;;;;;4.45;97.85742;93122.44;;;;
2020/10/04 00:06:09;;;;;;;7.550001;5.95;;;;;;;4.45;97.85742;93122.44;;;;
2020/10/04 00:07:10;;;;;;;7.550001;5.95;;;;;;;4.45;97.85742;93122.44;;;;
2020/10/04 00:08:11;;;;;;;7.550001;5.95;;;;;;;4.45;97.85742;93122.44;;;;
2020/10/04 00:09:11;;;;;;;7.550001;5.95;;;;;;;4.45;97.85742;93122.44;;;;
2020/10/04 00:10:12;;;;;;;7.550001;5.95;;;;;;;4.45;97.85742;93122.44;;;;
2020/10/04 00:11:13;;;;;;;7.550001;5.95;;;;;;;4.45;97.85742;93122.44;;;;
2020/10/04 00:12:13;;;;;;;7.550001;5.95;;;;;;;4.45;97.85742;93122.44;;;;
2020/10/04 00:13:14;;;;;;;7.550001;5.95;;;;;;;4.45;97.85742;93122.44;;;;
2020/10/04 00:14:14;;;;;;;7.349999;5.45;;;;;;;4.33;98.04785;93115.22;;;;
2020/10/04 00:15:15;;;;;;;7.349999;5.45;;;;;;;4.33;98.04785;93115.22;;;;
2020/10/04 00:16:15;;;;;;;7.349999;5.45;;;;;;;4.33;98.04785;93115.22;;;;
2020/10/04 00:17:16;;;;;;;7.349999;5.45;;;;;;;4.33;98.04785;93115.22;;;;
2020/10/04 00:18:16;;;;;;;7.349999;5.45;;;;;;;4.33;98.04785;93115.22;;;;
2020/10/04 00:19:17;;;;;;;7.349999;5.45;;;;;;;4.33;98.04785;93115.22;;;;
2020/10/04 00:20:17;;;;;;;7.349999;5.45;;;;;;;4.33;98.04785;93115.22;;;;
2020/10/04 00:21:18;;;;;;;7.349999;5.45;;;;;;;4.33;98.04785;93115.22;;;;
2020/10/04 00:22:19;;;;;;;7.349999;5.45;;;;;;;4.33;98.04785;93115.22;;;;
2020/10/04 00:23:19;;;;;;;7.349999;5.45;;;;;;;4.33;98.04785;93115.22;;;;
2020/10/04 00:24:20;;;;;;;7.349999;5.45;;;;;;;4.33;98.04785;93115.22;;;;
2020/10/04 00:25:20;;;;;;;7.350001;6.05;;;;;;;4.32;98.03711;93110.96;;;;
2020/10/04 00:26:21;;;;;;;7.350001;6.05;;;;;;;4.32;98.03711;93110.96;;;;
2020/10/04 00:27:21;;;;;;;7.350001;6.05;;;;;;;4.32;98.03711;93110.96;;;;
2020/10/04 00:28:22;;;;;;;7.350001;6.05;;;;;;;4.32;98.03711;93110.96;;;;
2020/10/04 00:29:22;;;;;;;7.350001;6.05;;;;;;;4.32;98.03711;93110.96;;;;
2020/10/04 00:30:23;;;;;;;7.350001;6.05;;;;;;;4.32;98.03711;93110.96;;;;
2020/10/04 00:31:23;;;;;;;7.350001;6.05;;;;;;;4.32;98.03711;93110.96;;;;
2020/10/04 00:32:24;;;;;;;7.350001;6.05;;;;;;;4.32;98.03711;93110.96;;;;
2020/10/04 00:33:24;;;;;;;7.350001;6.05;;;;;;;4.32;98.03711;93110.96;;;;
2020/10/04 00:34:25;;;;;;;7.350001;6.05;;;;;;;4.32;98.03711;93110.96;;;;
2020/10/04 00:35:25;;;;;;;4.8;4.050001;;;;;;;4.18;98.12012;93116.78;;;;
2020/10/04 00:36:26;;;;;;;4.8;4.050001;;;;;;;4.18;98.12012;93116.78;;;;
2020/10/04 00:37:26;;;;;;;4.8;4.050001;;;;;;;4.18;98.12012;93116.78;;;;
2020/10/04 00:38:27;;;;;;;4.8;4.050001;;;;;;;4.18;98.12012;93116.78;;;;
2020/10/04 00:39:28;;;;;;;4.8;4.050001;;;;;;;4.18;98.12012;93116.78;;;;
2020/10/04 00:40:28;;;;;;;4.8;4.050001;;;;;;;4.18;98.12012;93116.78;;;;
2020/10/04 00:41:29;;;;;;;4.8;4.050001;;;;;;;4.18;98.12012;93116.78;;;;
2020/10/04 00:42:29;;;;;;;4.8;4.050001;;;;;;;4.18;98.12012;93116.78;;;;
2020/10/04 00:43:30;;;;;;;4.8;4.050001;;;;;;;4.18;98.12012;93116.78;;;;
2020/10/04 00:44:30;;;;;;;4.8;4.050001;;;;;;;4.18;98.12012;93116.78;;;;
2020/10/04 00:45:31;;;;;;;4.8;4.050001;;;;;;;4.18;98.12012;93116.78;;;;
2020/10/04 00:46:31;;;;;;;6.849999;4.400001;;;;;;;4.08;98.42285;93113.49;;;;
2020/10/04 00:47:32;;;;;;;6.849999;4.400001;;;;;;;4.08;98.42285;93113.49;;;;
2020/10/04 00:48:33;;;;;;;6.849999;4.400001;;;;;;;4.08;98.42285;93113.49;;;;
2020/10/04 00:49:34;;;;;;;6.849999;4.400001;;;;;;;4.08;98.42285;93113.49;;;;
2020/10/04 00:50:34;;;;;;;6.849999;4.400001;;;;;;;4.08;98.42285;93113.49;;;;
2020/10/04 00:51:35;;;;;;;6.849999;4.400001;;;;;;;4.08;98.42285;93113.49;;;;
2020/10/04 00:52:35;;;;;;;6.849999;4.400001;;;;;;;4.08;98.42285;93113.49;;;;
2020/10/04 00:53:36;;;;;;;6.849999;4.400001;;;;;;;4.08;98.42285;93113.49;;;;
2020/10/04 00:54:37;;;;;;;6.849999;4.400001;;;;;;;4.08;98.42285;93113.49;;;;
2020/10/04 00:55:37;;;;;;;6.849999;4.400001;;;;;;;4.08;98.42285;93113.49;;;;
2020/10/04 00:56:38;;;;;;;6.849999;4.400001;;;;;;;4.08;98.42285;93113.49;;;;
2020/10/04 00:57:47;;;;;;;4;3.5;;;;;;;4.07;98.4834;93102.92;;;;
2020/10/04 00:58:47;;;;;;;4;3.5;;;;;;;4.07;98.4834;93102.92;;;;
2020/10/04 00:59:48;;;;;;;4;3.5;;;;;;;4.07;98.4834;93102.92;;;;
2020/10/04 01:00:48;;;;;;;4;3.5;;;;;;;4.07;98.4834;93102.92;;;;
2020/10/04 01:01:49;;;;;;;4;3.5;;;;;;;4.07;98.4834;93102.92;;;;
2020/10/04 01:02:52;;;;;;;4;3.5;;;;;;;4.07;98.4834;93102.92;;;;
2020/10/04 01:03:53;;;;;;;4;3.5;;;;;;;4.07;98.4834;93102.92;;;;
2020/10/04 01:04:53;;;;;;;4;3.5;;;;;;;4.07;98.4834;93102.92;;;;
2020/10/04 01:05:54;;;;;;;4;3.5;;;;;;;4.07;98.4834;93102.92;;;;
2020/10/04 01:06:54;;;;;;;4;3.5;;;;;;;4.07;98.4834;93102.92;;;;
2020/10/04 01:07:55;;;;;;;5;3.8;;;;;;;3.97;98.41797;93083.31;;;;
2020/10/04 01:08:55;;;;;;;5;3.8;;;;;;;3.97;98.41797;93083.31;;;;
2020/10/04 01:09:56;;;;;;;5;3.8;;;;;;;3.97;98.41797;93083.31;;;;
2020/10/04 01:10:56;;;;;;;5;3.8;;;;;;;3.97;98.41797;93083.31;;;;
2020/10/04 01:11:57;;;;;;;5;3.8;;;;;;;3.97;98.41797;93083.31;;;;
2020/10/04 01:12:57;;;;;;;5;3.8;;;;;;;3.97;98.41797;93083.31;;;;
2020/10/04 01:13:58;;;;;;;5;3.8;;;;;;;3.97;98.41797;93083.31;;;;
2020/10/04 01:14:59;;;;;;;5;3.8;;;;;;;3.97;98.41797;93083.31;;;;
2020/10/04 01:16:00;;;;;;;5;3.8;;;;;;;3.97;98.41797;93083.31;;;;
2020/10/04 01:17:00;;;;;;;5;3.8;;;;;;;3.97;98.41797;93083.31;;;;
2020/10/04 01:18:01;;;;;;;5;3.8;;;;;;;3.97;98.41797;93083.31;;;;
2020/10/04 01:19:01;;;;;;;4.9;3.55;;;;;;;3.83;98.6582;93078.08;;;;
2020/10/04 01:20:03;;;;;;;4.9;3.55;;;;;;;3.83;98.6582;93078.08;;;;
2020/10/04 01:21:03;;;;;;;4.9;3.55;;;;;;;3.83;98.6582;93078.08;;;;
2020/10/04 01:22:04;;;;;;;4.9;3.55;;;;;;;3.83;98.6582;93078.08;;;;
2020/10/04 01:23:05;;;;;;;4.9;3.55;;;;;;;3.83;98.6582;93078.08;;;;
2020/10/04 01:24:06;;;;;;;4.9;3.55;;;;;;;3.83;98.6582;93078.08;;;;
2020/10/04 01:25:06;;;;;;;4.9;3.55;;;;;;;3.83;98.6582;93078.08;;;;
2020/10/04 01:26:07;;;;;;;4.9;3.55;;;;;;;3.83;98.6582;93078.08;;;;
2020/10/04 01:27:07;;;;;;;4.9;3.55;;;;;;;3.83;98.6582;93078.08;;;;
2020/10/04 01:28:08;;;;;;;4.9;3.55;;;;;;;3.83;98.6582;93078.08;;;;
2020/10/04 01:29:08;;;;;;;5.65;2.95;;;;;;;3.79;98.83789;93058.69;;;;
2020/10/04 01:30:09;;;;;;;5.65;2.95;;;;;;;3.79;98.83789;93058.69;;;;
2020/10/04 01:31:10;;;;;;;5.65;2.95;;;;;;;3.79;98.83789;93058.69;;;;
2020/10/04 01:32:11;;;;;;;5.65;2.95;;;;;;;3.79;98.83789;93058.69;;;;
2020/10/04 01:33:11;;;;;;;5.65;2.95;;;;;;;3.79;98.83789;93058.69;;;;
2020/10/04 01:34:11;;;;;;;5.65;2.95;;;;;;;3.79;98.83789;93058.69;;;;
2020/10/04 01:35:12;;;;;;;5.65;2.95;;;;;;;3.79;98.83789;93058.69;;;;
2020/10/04 01:36:13;;;;;;;5.65;2.95;;;;;;;3.79;98.83789;93058.69;;;;
2020/10/04 01:37:13;;;;;;;5.65;2.95;;;;;;;3.79;98.83789;93058.69;;;;
2020/10/04 01:38:14;;;;;;;5.65;2.95;;;;;;;3.79;98.83789;93058.69;;;;
2020/10/04 01:39:14;;;;;;;5.65;2.95;;;;;;;3.79;98.83789;93058.69;;;;
2020/10/04 01:40:15;;;;;;;3.05;2.45;;;;;;;3.73;98.80176;93067.27;;;;
2020/10/04 01:41:15;;;;;;;3.05;2.45;;;;;;;3.73;98.80176;93067.27;;;;
2020/10/04 01:42:16;;;;;;;3.05;2.45;;;;;;;3.73;98.80176;93067.27;;;;
2020/10/04 01:43:16;;;;;;;3.05;2.45;;;;;;;3.73;98.80176;93067.27;;;;
2020/10/04 01:44:17;;;;;;;3.05;2.45;;;;;;;3.73;98.80176;93067.27;;;;
2020/10/04 01:45:17;;;;;;;3.05;2.45;;;;;;;3.73;98.80176;93067.27;;;;
2020/10/04 01:46:18;;;;;;;3.05;2.45;;;;;;;3.73;98.80176;93067.27;;;;
2020/10/04 01:47:18;;;;;;;3.05;2.45;;;;;;;3.73;98.80176;93067.27;;;;
2020/10/04 01:48:19;;;;;;;3.05;2.45;;;;;;;3.73;98.80176;93067.27;;;;
2020/10/04 01:49:19;;;;;;;3.05;2.45;;;;;;;3.73;98.80176;93067.27;;;;
2020/10/04 01:50:20;;;;;;;7.25;4.05;;;;;;;3.8;99.73828;93089.64;;;;
2020/10/04 01:51:20;;;;;;;7.25;4.05;;;;;;;3.8;99.73828;93089.64;;;;
2020/10/04 01:52:21;;;;;;;7.25;4.05;;;;;;;3.8;99.73828;93089.64;;;;
2020/10/04 01:53:22;;;;;;;7.25;4.05;;;;;;;3.8;99.73828;93089.64;;;;
2020/10/04 01:54:22;;;;;;;7.25;4.05;;;;;;;3.8;99.73828;93089.64;;;;
2020/10/04 01:55:23;;;;;;;7.25;4.05;;;;;;;3.8;99.73828;93089.64;;;;
2020/10/04 01:56:23;;;;;;;7.25;4.05;;;;;;;3.8;99.73828;93089.64;;;;
2020/10/04 01:57:24;;;;;;;7.25;4.05;;;;;;;3.8;99.73828;93089.64;;;;
2020/10/04 01:58:25;;;;;;;7.25;4.05;;;;;;;3.8;99.73828;93089.64;;;;
2020/10/04 01:59:25;;;;;;;7.25;4.05;;;;;;;3.8;99.73828;93089.64;;;;
2020/10/04 02:00:26;;;;;;;7.25;4.05;;;;;;;3.8;99.73828;93089.64;;;;
2020/10/04 02:01:26;;;;;;;16.8;4.6;;;;;;;4.39;99.6748;93150.15;;;;
2020/10/04 02:02:27;;;;;;;16.8;4.6;;;;;;;4.39;99.6748;93150.15;;;;
2020/10/04 02:03:27;;;;;;;16.8;4.6;;;;;;;4.39;99.6748;93150.15;;;;
2020/10/04 02:04:28;;;;;;;16.8;4.6;;;;;;;4.39;99.6748;93150.15;;;;
2020/10/04 02:05:28;;;;;;;16.8;4.6;;;;;;;4.39;99.6748;93150.15;;;;
2020/10/04 02:06:29;;;;;;;16.8;4.6;;;;;;;4.39;99.6748;93150.15;;;;
2020/10/04 02:07:29;;;;;;;16.8;4.6;;;;;;;4.39;99.6748;93150.15;;;;
2020/10/04 02:08:30;;;;;;;16.8;4.6;;;;;;;4.39;99.6748;93150.15;;;;
2020/10/04 02:09:31;;;;;;;16.8;4.6;;;;;;;4.39;99.6748;93150.15;;;;
2020/10/04 02:10:31;;;;;;;16.8;4.6;;;;;;;4.39;99.6748;93150.15;;;;
2020/10/04 02:11:32;;;;;;;12.6;5.599999;;;;;;;5.07;99.4873;93199.37;;;;
2020/10/04 02:12:32;;;;;;;12.6;5.599999;;;;;;;5.07;99.4873;93199.37;;;;
2020/10/04 02:13:33;;;;;;;12.6;5.599999;;;;;;;5.07;99.4873;93199.37;;;;
2020/10/04 02:14:33;;;;;;;12.6;5.599999;;;;;;;5.07;99.4873;93199.37;;;;
2020/10/04 02:15:34;;;;;;;12.6;5.599999;;;;;;;5.07;99.4873;93199.37;;;;
2020/10/04 02:16:34;;;;;;;12.6;5.599999;;;;;;;5.07;99.4873;93199.37;;;;
2020/10/04 02:17:35;;;;;;;12.6;5.599999;;;;;;;5.07;99.4873;93199.37;;;;
2020/10/04 02:18:35;;;;;;;12.6;5.599999;;;;;;;5.07;99.4873;93199.37;;;;
2020/10/04 02:19:36;;;;;;;12.6;5.599999;;;;;;;5.07;99.4873;93199.37;;;;
2020/10/04 02:20:36;;;;;;;12.6;5.599999;;;;;;;5.07;99.4873;93199.37;;;;
2020/10/04 02:21:37;;;;;;;12.6;5.599999;;;;;;;5.07;99.4873;93199.37;;;;
2020/10/04 02:22:37;;;;;;;7.5;5.649999;;;;;;;5.33;99.26465;93225.31;;;;
2020/10/04 02:23:37;;;;;;;7.5;5.649999;;;;;;;5.33;99.26465;93225.31;;;;
2020/10/04 02:24:38;;;;;;;7.5;5.649999;;;;;;;5.33;99.26465;93225.31;;;;
2020/10/04 02:25:39;;;;;;;7.5;5.649999;;;;;;;5.33;99.26465;93225.31;;;;
2020/10/04 02:26:39;;;;;;;7.5;5.649999;;;;;;;5.33;99.26465;93225.31;;;;
2020/10/04 02:27:40;;;;;;;7.5;5.649999;;;;;;;5.33;99.26465;93225.31;;;;
2020/10/04 02:28:40;;;;;;;7.5;5.649999;;;;;;;5.33;99.26465;93225.31;;;;
2020/10/04 02:29:41;;;;;;;7.5;5.649999;;;;;;;5.33;99.26465;93225.31;;;;
2020/10/04 02:30:41;;;;;;;7.5;5.649999;;;;;;;5.33;99.26465;93225.31;;;;
2020/10/04 02:31:42;;;;;;;7.5;5.649999;;;;;;;5.33;99.26465;93225.31;;;;
2020/10/04 02:32:43;;;;;;;7.5;5.649999;;;;;;;5.33;99.26465;93225.31;;;;
2020/10/04 02:33:43;;;;;;;5.550001;4.55;;;;;;;5.4;100;93257.6;;;;
2020/10/04 02:34:44;;;;;;;5.550001;4.55;;;;;;;5.4;100;93257.6;;;;
2020/10/04 02:35:44;;;;;;;5.550001;4.55;;;;;;;5.4;100;93257.6;;;;
2020/10/04 02:36:45;;;;;;;5.550001;4.55;;;;;;;5.4;100;93257.6;;;;
2020/10/04 02:37:47;;;;;;;5.550001;4.55;;;;;;;5.4;100;93257.6;;;;
2020/10/04 02:38:47;;;;;;;5.550001;4.55;;;;;;;5.4;100;93257.6;;;;
2020/10/04 02:39:48;;;;;;;5.550001;4.55;;;;;;;5.4;100;93257.6;;;;
2020/10/04 02:40:48;;;;;;;5.550001;4.55;;;;;;;5.4;100;93257.6;;;;
2020/10/04 02:41:49;;;;;;;5.550001;4.55;;;;;;;5.4;100;93257.6;;;;
2020/10/04 02:42:49;;;;;;;5.550001;4.55;;;;;;;5.4;100;93257.6;;;;
2020/10/04 02:43:50;;;;;;;5.15;4.3;;;;;;;5.44;100;93286.41;;;;
2020/10/04 02:44:50;;;;;;;5.15;4.3;;;;;;;5.44;100;93286.41;;;;
2020/10/04 02:45:51;;;;;;;5.15;4.3;;;;;;;5.44;100;93286.41;;;;
2020/10/04 02:46:51;;;;;;;5.15;4.3;;;;;;;5.44;100;93286.41;;;;
2020/10/04 02:47:52;;;;;;;5.15;4.3;;;;;;;5.44;100;93286.41;;;;
2020/10/04 02:48:55;;;;;;;5.15;4.3;;;;;;;5.44;100;93286.41;;;;
2020/10/04 02:49:55;;;;;;;5.15;4.3;;;;;;;5.44;100;93286.41;;;;
2020/10/04 02:50:56;;;;;;;5.15;4.3;;;;;;;5.44;100;93286.41;;;;
2020/10/04 02:51:56;;;;;;;5.15;4.3;;;;;;;5.44;100;93286.41;;;;
2020/10/04 02:52:57;;;;;;;5.15;4.3;;;;;;;5.44;100;93286.41;;;;
2020/10/04 02:53:57;;;;;;;5.15;4.3;;;;;;;5.44;100;93286.41;;;;
2020/10/04 02:54:58;;;;;;;7.05;3.95;;;;;;;5.58;100;93312.22;;;;
2020/10/04 02:55:58;;;;;;;7.05;3.95;;;;;;;5.58;100;93312.22;;;;
2020/10/04 02:56:59;;;;;;;7.05;3.95;;;;;;;5.58;100;93312.22;;;;
2020/10/04 02:57:59;;;;;;;7.05;3.95;;;;;;;5.58;100;93312.22;;;;
2020/10/04 02:59:00;;;;;;;7.05;3.95;;;;;;;5.58;100;93312.22;;;;
2020/10/04 03:00:00;;;;;;;7.05;3.95;;;;;;;5.58;100;93312.22;;;;
2020/10/04 03:01:01;;;;;;;7.05;3.95;;;;;;;5.58;100;93312.22;;;;
2020/10/04 03:02:02;;;;;;;7.05;3.95;;;;;;;5.58;100;93312.22;;;;
2020/10/04 03:03:02;;;;;;;7.05;3.95;;;;;;;5.58;100;93312.22;;;;
2020/10/04 03:04:03;;;;;;;7.05;3.95;;;;;;;5.58;100;93312.22;;;;
2020/10/04 03:05:03;;;;;;;4.3;3.75;;;;;;;5.61;100;93351.73;;;;
2020/10/04 03:06:04;;;;;;;4.3;3.75;;;;;;;5.61;100;93351.73;;;;
2020/10/04 03:07:04;;;;;;;4.3;3.75;;;;;;;5.61;100;93351.73;;;;
2020/10/04 03:08:05;;;;;;;4.3;3.75;;;;;;;5.61;100;93351.73;;;;
2020/10/04 03:09:05;;;;;;;4.3;3.75;;;;;;;5.61;100;93351.73;;;;
2020/10/04 03:10:06;;;;;;;4.3;3.75;;;;;;;5.61;100;93351.73;;;;
2020/10/04 03:11:08;;;;;;;4.3;3.75;;;;;;;5.61;100;93351.73;;;;
2020/10/04 03:12:09;;;;;;;4.3;3.75;;;;;;;5.61;100;93351.73;;;;
2020/10/04 03:13:12;;;;;;;4.3;3.75;;;;;;;5.61;100;93351.73;;;;
2020/10/04 03:14:13;;;;;;;4.3;3.75;;;;;;;5.61;100;93351.73;;;;
2020/10/04 03:15:13;;;;;;;4.3;3.75;;;;;;;5.61;100;93351.73;;;;
2020/10/04 03:16:14;;;;;;;4.099999;3.7;;;;;;;5.67;100;93395.43;;;;
2020/10/04 03:17:14;;;;;;;4.099999;3.7;;;;;;;5.67;100;93395.43;;;;
2020/10/04 03:18:15;;;;;;;4.099999;3.7;;;;;;;5.67;100;93395.43;;;;
2020/10/04 03:19:15;;;;;;;4.099999;3.7;;;;;;;5.67;100;93395.43;;;;
2020/10/04 03:20:16;;;;;;;4.099999;3.7;;;;;;;5.67;100;93395.43;;;;
2020/10/04 03:21:17;;;;;;;4.099999;3.7;;;;;;;5.67;100;93395.43;;;;
2020/10/04 03:22:17;;;;;;;4.099999;3.7;;;;;;;5.67;100;93395.43;;;;
2020/10/04 03:23:17;;;;;;;4.099999;3.7;;;;;;;5.67;100;93395.43;;;;
2020/10/04 03:24:18;;;;;;;4.099999;3.7;;;;;;;5.67;100;93395.43;;;;
2020/10/04 03:25:18;;;;;;;4.099999;3.7;;;;;;;5.67;100;93395.43;;;;
2020/10/04 03:26:19;;;;;;;3.35;3.05;;;;;;;5.7;100;93431.09;;;;
2020/10/04 03:27:19;;;;;;;3.35;3.05;;;;;;;5.7;100;93431.09;;;;
2020/10/04 03:28:20;;;;;;;3.35;3.05;;;;;;;5.7;100;93431.09;;;;
2020/10/04 03:29:21;;;;;;;3.35;3.05;;;;;;;5.7;100;93431.09;;;;
2020/10/04 03:30:21;;;;;;;3.35;3.05;;;;;;;5.7;100;93431.09;;;;
2020/10/04 03:31:22;;;;;;;3.35;3.05;;;;;;;5.7;100;93431.09;;;;
2020/10/04 03:32:22;;;;;;;3.35;3.05;;;;;;;5.7;100;93431.09;;;;
2020/10/04 03:33:23;;;;;;;3.35;3.05;;;;;;;5.7;100;93431.09;;;;
2020/10/04 03:34:23;;;;;;;3.35;3.05;;;;;;;5.7;100;93431.09;;;;
2020/10/04 03:35:24;;;;;;;3.35;3.05;;;;;;;5.7;100;93431.09;;;;
2020/10/04 03:36:24;;;;;;;3.35;3.05;;;;;;;5.7;100;93431.09;;;;
2020/10/04 03:37:25;;;;;;;3.95;3.05;;;;;;;5.76;100;93465.8;;;;
2020/10/04 03:38:25;;;;;;;3.95;3.05;;;;;;;5.76;100;93465.8;;;;
2020/10/04 03:39:26;;;;;;;3.95;3.05;;;;;;;5.76;100;93465.8;;;;
2020/10/04 03:40:26;;;;;;;3.95;3.05;;;;;;;5.76;100;93465.8;;;;
2020/10/04 03:41:27;;;;;;;3.95;3.05;;;;;;;5.76;100;93465.8;;;;
2020/10/04 03:42:27;;;;;;;3.95;3.05;;;;;;;5.76;100;93465.8;;;;
2020/10/04 03:43:28;;;;;;;3.95;3.05;;;;;;;5.76;100;93465.8;;;;
2020/10/04 03:44:28;;;;;;;3.95;3.05;;;;;;;5.76;100;93465.8;;;;
2020/10/04 03:45:30;;;;;;;3.95;3.05;;;;;;;5.76;100;93465.8;;;;
2020/10/04 03:46:31;;;;;;;3.95;3.05;;;;;;;5.76;100;93465.8;;;;
2020/10/04 03:47:32;;;;;;;3.85;3;;;;;;;5.72;100;93477.55;;;;
2020/10/04 03:48:33;;;;;;;3.85;3;;;;;;;5.72;100;93477.55;;;;
2020/10/04 03:49:33;;;;;;;3.85;3;;;;;;;5.72;100;93477.55;;;;
2020/10/04 03:50:36;;;;;;;3.85;3;;;;;;;5.72;100;93477.55;;;;
2020/10/04 03:51:37;;;;;;;3.85;3;;;;;;;5.72;100;93477.55;;;;
2020/10/04 03:52:43;;;;;;;3.85;3;;;;;;;5.72;100;93477.55;;;;
2020/10/04 03:53:46;;;;;;;3.85;3;;;;;;;5.72;100;93477.55;;;;
2020/10/04 03:54:47;;;;;;;3.85;3;;;;;;;5.72;100;93477.55;;;;
2020/10/04 03:56:02;;;;;;;3.85;3;;;;;;;5.72;100;93477.55;;;;
2020/10/04 03:57:02;;;;;;;3.85;3;;;;;;;5.72;100;93477.55;;;;
2020/10/04 03:58:03;;;;;;;3.85;3;;;;;;;5.72;100;93477.55;;;;
2020/10/04 03:59:03;;;;;;;2.6;2.4;;;;;;;5.67;100;93479.24;;;;
2020/10/04 04:00:05;;;;;;;2.6;2.4;;;;;;;5.67;100;93479.24;;;;
2020/10/04 04:01:07;;;;;;;2.6;2.4;;;;;;;5.67;100;93479.24;;;;
2020/10/04 04:02:09;;;;;;;2.6;2.4;;;;;;;5.67;100;93479.24;;;;
2020/10/04 04:03:09;;;;;;;2.6;2.4;;;;;;;5.67;100;93479.24;;;;
2020/10/04 04:04:10;;;;;;;2.6;2.4;;;;;;;5.67;100;93479.24;;;;
2020/10/04 04:05:20;;;;;;;2.6;2.4;;;;;;;5.67;100;93479.24;;;;
2020/10/04 04:06:28;;;;;;;2.6;2.4;;;;;;;5.67;100;93479.24;;;;
2020/10/04 04:07:29;;;;;;;2.6;2.4;;;;;;;5.67;100;93479.24;;;;
2020/10/04 04:08:31;;;;;;;2.6;2.4;;;;;;;5.67;100;93479.24;;;;
2020/10/04 04:09:32;;;;;;;3.3;2.6;;;;;;;5.5;100;93503.13;;;;
2020/10/04 04:10:33;;;;;;;3.3;2.6;;;;;;;5.5;100;93503.13;;;;
2020/10/04 04:11:33;;;;;;;3.3;2.6;;;;;;;5.5;100;93503.13;;;;
2020/10/04 04:12:34;;;;;;;3.3;2.6;;;;;;;5.5;100;93503.13;;;;
2020/10/04 04:13:39;;;;;;;3.3;2.6;;;;;;;5.5;100;93503.13;;;;
2020/10/04 04:14:53;;;;;;;3.3;2.6;;;;;;;5.5;100;93503.13;;;;
2020/10/04 04:15:53;;;;;;;3.3;2.6;;;;;;;5.5;100;93503.13;;;;
2020/10/04 04:16:54;;;;;;;3.3;2.6;;;;;;;5.5;100;93503.13;;;;
2020/10/04 04:17:55;;;;;;;3.3;2.6;;;;;;;5.5;100;93503.13;;;;
2020/10/04 04:18:57;;;;;;;3.3;2.6;;;;;;;5.5;100;93503.13;;;;
2020/10/04 04:20:56;;;;;;;2.85;2.55;;;;;;;5.52;100;93514.39;;;;
2020/10/04 04:22:07;;;;;;;2.85;2.55;;;;;;;5.52;100;93514.39;;;;
2020/10/04 04:23:07;;;;;;;2.85;2.55;;;;;;;5.52;100;93514.39;;;;
2020/10/04 04:24:09;;;;;;;2.85;2.55;;;;;;;5.52;100;93514.39;;;;
2020/10/04 04:25:09;;;;;;;2.85;2.55;;;;;;;5.52;100;93514.39;;;;
2020/10/04 04:26:15;;;;;;;2.85;2.55;;;;;;;5.52;100;93514.39;;;;
2020/10/04 04:27:16;;;;;;;2.85;2.55;;;;;;;5.52;100;93514.39;;;;
2020/10/04 04:28:16;;;;;;;2.85;2.55;;;;;;;5.52;100;93514.39;;;;
2020/10/04 04:29:22;;;;;;;2.85;2.55;;;;;;;5.52;100;93514.39;;;;
2020/10/04 04:30:24;;;;;;;3.049999;2.35;;;;;;;5.47;100;93522.33;;;;
2020/10/04 04:31:31;;;;;;;3.049999;2.35;;;;;;;5.47;100;93522.33;;;;
2020/10/04 04:32:32;;;;;;;3.049999;2.35;;;;;;;5.47;100;93522.33;;;;
2020/10/04 04:33:32;;;;;;;3.049999;2.35;;;;;;;5.47;100;93522.33;;;;
2020/10/04 04:34:33;;;;;;;3.049999;2.35;;;;;;;5.47;100;93522.33;;;;
2020/10/04 04:35:35;;;;;;;3.049999;2.35;;;;;;;5.47;100;93522.33;;;;
2020/10/04 04:36:36;;;;;;;3.049999;2.35;;;;;;;5.47;100;93522.33;;;;
2020/10/04 04:37:36;;;;;;;3.049999;2.35;;;;;;;5.47;100;93522.33;;;;
2020/10/04 04:38:37;;;;;;;3.049999;2.35;;;;;;;5.47;100;93522.33;;;;
2020/10/04 04:39:43;;;;;;;3.049999;2.35;;;;;;;5.47;100;93522.33;;;;
2020/10/04 04:41:01;;;;;;;2.35;2.15;;;;;;;5.53;100;93527.11;;;;
2020/10/04 04:42:02;;;;;;;2.35;2.15;;;;;;;5.53;100;93527.11;;;;
2020/10/04 04:43:04;;;;;;;2.35;2.15;;;;;;;5.53;100;93527.11;;;;
2020/10/04 04:44:08;;;;;;;2.35;2.15;;;;;;;5.53;100;93527.11;;;;
2020/10/04 04:45:08;;;;;;;2.35;2.15;;;;;;;5.53;100;93527.11;;;;
2020/10/04 04:46:09;;;;;;;2.35;2.15;;;;;;;5.53;100;93527.11;;;;
2020/10/04 04:47:11;;;;;;;2.35;2.15;;;;;;;5.53;100;93527.11;;;;
2020/10/04 04:48:11;;;;;;;2.35;2.15;;;;;;;5.53;100;93527.11;;;;
2020/10/04 04:49:22;;;;;;;2.35;2.15;;;;;;;5.53;100;93527.11;;;;
2020/10/04 04:50:26;;;;;;;2.35;2.15;;;;;;;5.53;100;93527.11;;;;
2020/10/04 04:51:27;;;;;;;2.3;2.1;;;;;;;5.75;100;93516.82;;;;
2020/10/04 04:52:28;;;;;;;2.3;2.1;;;;;;;5.75;100;93516.82;;;;
2020/10/04 04:53:28;;;;;;;2.3;2.1;;;;;;;5.75;100;93516.82;;;;
2020/10/04 04:54:29;;;;;;;2.3;2.1;;;;;;;5.75;100;93516.82;;;;
2020/10/04 04:55:29;;;;;;;2.3;2.1;;;;;;;5.75;100;93516.82;;;;
2020/10/04 04:56:31;;;;;;;2.3;2.1;;;;;;;5.75;100;93516.82;;;;
2020/10/04 04:57:32;;;;;;;2.3;2.1;;;;;;;5.75;100;93516.82;;;;
2020/10/04 04:58:33;;;;;;;2.3;2.1;;;;;;;5.75;100;93516.82;;;;
2020/10/04 04:59:33;;;;;;;2.3;2.1;;;;;;;5.75;100;93516.82;;;;
2020/10/04 05:00:34;;;;;;;2.3;2.1;;;;;;;5.75;100;93516.82;;;;
2020/10/04 05:01:34;;;;;;;2.3;2.1;;;;;;;5.75;100;93516.82;;;;
2020/10/04 05:02:35;;;;;;;2.65;2.05;;;;;;;5.91;100;93523.08;;;;
2020/10/04 05:03:37;;;;;;;2.65;2.05;;;;;;;5.91;100;93523.08;;;;
2020/10/04 05:04:42;;;;;;;2.65;2.05;;;;;;;5.91;100;93523.08;;;;
2020/10/04 05:05:44;;;;;;;2.65;2.05;;;;;;;5.91;100;93523.08;;;;
2020/10/04 05:06:45;;;;;;;2.65;2.05;;;;;;;5.91;100;93523.08;;;;
2020/10/04 05:07:45;;;;;;;2.65;2.05;;;;;;;5.91;100;93523.08;;;;
2020/10/04 05:08:47;;;;;;;2.65;2.05;;;;;;;5.91;100;93523.08;;;;
2020/10/04 05:09:48;;;;;;;2.65;2.05;;;;;;;5.91;100;93523.08;;;;
2020/10/04 05:10:50;;;;;;;2.65;2.05;;;;;;;5.91;100;93523.08;;;;
2020/10/04 05:11:50;;;;;;;2.65;2.05;;;;;;;5.91;100;93523.08;;;;
2020/10/04 05:12:51;;;;;;;2.25;2;;;;;;;6.04;100;93517.46;;;;
2020/10/04 05:13:51;;;;;;;2.25;2;;;;;;;6.04;100;93517.46;;;;
2020/10/04 05:14:52;;;;;;;2.25;2;;;;;;;6.04;100;93517.46;;;;
2020/10/04 05:15:52;;;;;;;2.25;2;;;;;;;6.04;100;93517.46;;;;
2020/10/04 05:16:53;;;;;;;2.25;2;;;;;;;6.04;100;93517.46;;;;
2020/10/04 05:17:54;;;;;;;2.25;2;;;;;;;6.04;100;93517.46;;;;
2020/10/04 05:18:54;;;;;;;2.25;2;;;;;;;6.04;100;93517.46;;;;
2020/10/04 05:19:56;;;;;;;2.25;2;;;;;;;6.04;100;93517.46;;;;
2020/10/04 05:20:59;;;;;;;2.25;2;;;;;;;6.04;100;93517.46;;;;
2020/10/04 05:22:02;;;;;;;2.25;2;;;;;;;6.04;100;93517.46;;;;
2020/10/04 05:23:10;;;;;;;2.25;2;;;;;;;6.04;100;93517.46;;;;
2020/10/04 05:24:12;;;;;;;2.25;1.95;;;;;;;6.32;100;93539.98;;;;
2020/10/04 05:25:12;;;;;;;2.25;1.95;;;;;;;6.32;100;93539.98;;;;
2020/10/04 05:26:18;;;;;;;2.25;1.95;;;;;;;6.32;100;93539.98;;;;
2020/10/04 05:27:25;;;;;;;2.25;1.95;;;;;;;6.32;100;93539.98;;;;
2020/10/04 05:28:26;;;;;;;2.25;1.95;;;;;;;6.32;100;93539.98;;;;
2020/10/04 05:29:30;;;;;;;2.25;1.95;;;;;;;6.32;100;93539.98;;;;
2020/10/04 05:30:31;;;;;;;2.25;1.95;;;;;;;6.32;100;93539.98;;;;
2020/10/04 05:31:32;;;;;;;2.25;1.95;;;;;;;6.32;100;93539.98;;;;
2020/10/04 05:32:33;;;;;;;2.25;1.95;;;;;;;6.32;100;93539.98;;;;
2020/10/04 05:33:36;;;;;;;2.25;1.95;;;;;;;6.32;100;93539.98;;;;
2020/10/04 05:34:37;;;;;;;2.4;1.8;;;;;;;6.49;100;93533.48;;;;
2020/10/04 05:35:37;;;;;;;2.4;1.8;;;;;;;6.49;100;93533.48;;;;
2020/10/04 05:36:39;;;;;;;2.4;1.8;;;;;;;6.49;100;93533.48;;;;
2020/10/04 05:37:39;;;;;;;2.4;1.8;;;;;;;6.49;100;93533.48;;;;
2020/10/04 05:38:40;;;;;;;2.4;1.8;;;;;;;6.49;100;93533.48;;;;
2020/10/04 05:39:40;;;;;;;2.4;1.8;;;;;;;6.49;100;93533.48;;;;
2020/10/04 05:40:41;;;;;;;2.4;1.8;;;;;;;6.49;100;93533.48;;;;
2020/10/04 05:41:42;;;;;;;2.4;1.8;;;;;;;6.49;100;93533.48;;;;
2020/10/04 05:42:43;;;;;;;2.4;1.8;;;;;;;6.49;100;93533.48;;;;
2020/10/04 05:43:53;;;;;;;2.4;1.8;;;;;;;6.49;100;93533.48;;;;
2020/10/04 05:45:00;;;;;;;2.2;1.9;;;;;;;6.75;100;93546.17;;;;
2020/10/04 05:46:01;;;;;;;2.2;1.9;;;;;;;6.75;100;93546.17;;;;
2020/10/04 05:47:02;;;;;;;2.2;1.9;;;;;;;6.75;100;93546.17;;;;
2020/10/04 05:48:03;;;;;;;2.2;1.9;;;;;;;6.75;100;93546.17;;;;
2020/10/04 05:49:05;;;;;;;2.2;1.9;;;;;;;6.75;100;93546.17;;;;
2020/10/04 05:50:05;;;;;;;2.2;1.9;;;;;;;6.75;100;93546.17;;;;
2020/10/04 05:51:09;;;;;;;2.2;1.9;;;;;;;6.75;100;93546.17;;;;
2020/10/04 05:52:09;;;;;;;2.2;1.9;;;;;;;6.75;100;93546.17;;;;
2020/10/04 05:53:10;;;;;;;2.2;1.9;;;;;;;6.75;100;93546.17;;;;
2020/10/04 05:54:11;;;;;;;2.2;1.9;;;;;;;6.75;100;93546.17;;;;
2020/10/04 05:55:12;;;;;;;2.2;1.9;;;;;;;6.75;100;93546.17;;;;
2020/10/04 05:56:17;;;;;;;2.55;2.35;;;;;;;6.99;100;93554.16;;;;
2020/10/04 05:57:18;;;;;;;2.55;2.35;;;;;;;6.99;100;93554.16;;;;
2020/10/04 05:58:18;;;;;;;2.55;2.35;;;;;;;6.99;100;93554.16;;;;
2020/10/04 05:59:20;;;;;;;2.55;2.35;;;;;;;6.99;100;93554.16;;;;
2020/10/04 06:00:21;;;;;;;2.55;2.35;;;;;;;6.99;100;93554.16;;;;
2020/10/04 06:01:22;;;;;;;2.55;2.35;;;;;;;6.99;100;93554.16;;;;
2020/10/04 06:02:24;;;;;;;2.55;2.35;;;;;;;6.99;100;93554.16;;;;
2020/10/04 06:03:25;;;;;;;2.55;2.35;;;;;;;6.99;100;93554.16;;;;
2020/10/04 06:04:25;;;;;;;2.55;2.35;;;;;;;6.99;100;93554.16;;;;
2020/10/04 06:05:26;;;;;;;2.55;2.35;;;;;;;6.99;100;93554.16;;;;
2020/10/04 06:06:28;;;;;;;2.3;1.7;;;;;;;7.3;100;93585.55;;;;